createdAt,value
2023-04-12T00:01:12.036Z,6.67
2023-04-12T00:03:39.774Z,6.64
2023-04-12T00:06:07.522Z,6.62
2023-04-12T00:08:35.711Z,6.70
2023-04-12T00:11:03.740Z,6.72
2023-04-12T00:13:31.260Z,6.79
2023-04-12T00:15:58.296Z,6.78
2023-04-12T00:18:25.895Z,6.77
2023-04-12T00:20:53.328Z,6.74
2023-04-12T00:23:21.393Z,6.70
2023-04-12T00:25:48.561Z,6.75
2023-04-12T00:28:16.237Z,6.74
2023-04-12T00:30:43.190Z,6.78
2023-04-12T00:33:10.029Z,6.71
2023-04-12T00:35:36.832Z,6.76
2023-04-12T00:38:04.345Z,6.68
2023-04-12T00:40:31.217Z,6.68
2023-04-12T00:42:58.055Z,6.74
2023-04-12T00:45:24.840Z,6.76
2023-04-12T00:47:52.040Z,6.71
2023-04-12T00:50:19.037Z,6.73
2023-04-12T00:52:46.350Z,6.64
2023-04-12T00:55:13.250Z,6.70
2023-04-12T00:57:41.298Z,6.66
2023-04-12T01:00:13.155Z,6.66
2023-04-12T01:02:50.970Z,6.79
2023-04-12T01:05:23.953Z,6.82
2023-04-12T01:08:06.843Z,6.70
2023-04-12T01:11:06.034Z,6.70
2023-04-12T01:13:36.204Z,6.73
2023-04-12T01:16:07.554Z,6.74
2023-04-12T01:18:41.307Z,6.84
2023-04-12T01:21:18.822Z,6.90
2023-04-12T01:24:01.953Z,6.88
2023-04-12T01:26:46.522Z,6.73
2023-04-12T01:29:18.338Z,6.83
2023-04-12T01:31:52.871Z,6.74
2023-04-12T01:34:22.161Z,6.81
2023-04-12T01:36:50.915Z,6.78
2023-04-12T01:39:17.947Z,6.79
2023-04-12T01:41:49.119Z,6.81
2023-04-12T01:44:17.216Z,6.85
2023-04-12T01:46:47.073Z,6.76
2023-04-12T01:49:15.857Z,6.83
2023-04-12T01:51:48.459Z,6.83
2023-04-12T01:54:22.198Z,6.85
2023-04-12T01:56:55.101Z,6.87
2023-04-12T01:59:26.881Z,6.98
2023-04-12T02:01:53.908Z,7.06
2023-04-12T02:04:22.336Z,6.99
2023-04-12T02:06:49.420Z,6.91
2023-04-12T02:09:16.302Z,6.94
2023-04-12T02:11:47.705Z,6.89
2023-04-12T02:14:14.693Z,6.88
2023-04-12T02:16:42.722Z,6.91
2023-04-12T02:19:10.852Z,6.85
2023-04-12T02:21:42.427Z,6.88
2023-04-12T02:24:10.175Z,6.95
2023-04-12T02:26:38.639Z,7.03
2023-04-12T02:29:09.327Z,6.96
2023-04-12T02:31:39.092Z,7.02
2023-04-12T02:34:06.575Z,6.98
2023-04-12T02:36:33.543Z,7.02
2023-04-12T02:39:00.326Z,7.06
2023-04-12T02:41:27.076Z,7.01
2023-04-12T02:43:53.849Z,7.04
2023-04-12T02:46:25.964Z,7.08
2023-04-12T02:48:53.028Z,7.08
2023-04-12T02:51:19.771Z,7.12
2023-04-12T02:53:46.541Z,7.17
2023-04-12T02:56:13.442Z,7.11
2023-04-12T02:58:40.339Z,7.21
2023-04-12T03:01:07.937Z,7.29
2023-04-12T03:03:35.983Z,7.32
2023-04-12T03:06:03.641Z,7.36
2023-04-12T03:08:30.556Z,7.36
2023-04-12T03:10:58.071Z,7.41
2023-04-12T03:13:24.888Z,7.33
2023-04-12T03:16:00.245Z,7.27
2023-04-12T03:18:27.076Z,7.31
2023-04-12T03:20:53.895Z,7.36
2023-04-12T03:23:21.049Z,7.40
2023-04-12T03:25:47.864Z,7.41
2023-04-12T03:28:14.723Z,7.36
2023-04-12T03:30:41.656Z,7.33
2023-04-12T03:33:08.707Z,7.39
2023-04-12T03:35:35.630Z,7.36
2023-04-12T03:38:02.541Z,7.33
2023-04-12T03:40:29.342Z,7.30
2023-04-12T03:42:56.135Z,7.32
2023-04-12T03:45:23.065Z,7.30
2023-04-12T03:47:50.149Z,7.30
2023-04-12T03:50:17.357Z,7.24
2023-04-12T03:52:44.139Z,7.23
2023-04-12T03:55:12.251Z,7.25
2023-04-12T03:57:39.077Z,7.25
2023-04-12T04:00:08.853Z,7.14
2023-04-12T04:02:36.423Z,7.05
2023-04-12T04:05:04.196Z,7.07
2023-04-12T04:07:32.404Z,7.04
2023-04-12T04:10:00.225Z,7.00
2023-04-12T04:12:28.303Z,6.99
2023-04-12T04:14:55.109Z,6.90
2023-04-12T04:17:22.030Z,6.95
2023-04-12T04:19:49.989Z,6.96
2023-04-12T04:22:18.062Z,6.92
2023-04-12T04:24:44.933Z,6.95
2023-04-12T04:27:11.671Z,6.92
2023-04-12T04:29:44.652Z,6.93
2023-04-12T04:32:12.930Z,6.88
2023-04-12T04:34:40.429Z,6.86
2023-04-12T04:37:07.623Z,6.87
2023-04-12T04:39:34.414Z,6.91
2023-04-12T04:42:01.122Z,6.85
2023-04-12T04:44:27.944Z,6.81
2023-04-12T04:46:54.660Z,6.86
2023-04-12T04:49:21.477Z,6.83
2023-04-12T04:51:48.264Z,6.86
2023-04-12T04:54:15.041Z,6.81
2023-04-12T04:56:41.866Z,6.77
2023-04-12T04:59:08.654Z,6.87
2023-04-12T05:01:36.788Z,6.87
2023-04-12T05:04:03.772Z,6.75
2023-04-12T05:06:31.229Z,6.78
2023-04-12T05:08:58.347Z,6.91
2023-04-12T05:11:26.339Z,6.96
2023-04-12T05:13:53.626Z,6.87
2023-04-12T05:16:21.305Z,6.91
2023-04-12T05:18:48.100Z,6.86
2023-04-12T05:21:14.983Z,6.83
2023-04-12T05:23:47.179Z,6.85
2023-04-12T05:26:14.074Z,6.95
2023-04-12T05:28:41.464Z,6.96
2023-04-12T05:31:08.788Z,6.87
2023-04-12T05:33:36.961Z,7.00
2023-04-12T05:36:04.716Z,7.01
2023-04-12T05:38:31.811Z,7.03
2023-04-12T05:40:58.604Z,6.96
2023-04-12T05:43:25.643Z,6.94
2023-04-12T05:45:52.392Z,6.82
2023-04-12T05:48:19.555Z,6.91
2023-04-12T05:50:53.137Z,6.91
2023-04-12T05:53:19.985Z,6.96
2023-04-12T05:55:46.745Z,7.11
2023-04-12T05:58:13.880Z,7.23
2023-04-12T06:00:44.312Z,7.18
2023-04-12T06:03:11.827Z,7.20
2023-04-12T06:05:39.194Z,7.16
2023-04-12T06:08:06.801Z,7.12
2023-04-12T06:10:33.569Z,7.24
2023-04-12T06:13:00.451Z,7.18
2023-04-12T06:15:27.231Z,7.12
2023-04-12T06:17:54.097Z,7.26
2023-04-12T06:20:21.171Z,7.21
2023-04-12T06:22:47.908Z,7.21
2023-04-12T06:25:14.713Z,7.12
2023-04-12T06:27:41.439Z,7.18
2023-04-12T06:30:08.983Z,7.07
2023-04-12T06:32:36.027Z,7.19
2023-04-12T06:35:03.048Z,7.29
2023-04-12T06:37:29.819Z,7.20
2023-04-12T06:39:56.539Z,7.19
2023-04-12T06:42:23.321Z,7.18
2023-04-12T06:44:50.080Z,7.19
2023-04-12T06:47:16.847Z,7.25
2023-04-12T06:49:44.053Z,7.25
2023-04-12T06:52:11.051Z,7.23
2023-04-12T06:54:38.750Z,7.27
2023-04-12T06:57:11.844Z,7.20
2023-04-12T06:59:38.626Z,7.34
2023-04-12T07:02:05.464Z,7.33
2023-04-12T07:04:32.490Z,7.30
2023-04-12T07:06:59.347Z,7.37
2023-04-12T07:09:26.515Z,7.42
2023-04-12T07:11:53.596Z,7.38
2023-04-12T07:14:20.381Z,7.38
2023-04-12T07:16:47.188Z,7.52
2023-04-12T07:19:14.129Z,7.39
2023-04-12T07:21:41.694Z,7.46
2023-04-12T07:24:08.535Z,7.38
2023-04-12T07:26:38.111Z,7.41
2023-04-12T07:29:04.860Z,7.49
2023-04-12T07:31:31.742Z,7.62
2023-04-12T07:33:58.701Z,7.48
2023-04-12T07:36:27.463Z,7.50
2023-04-12T07:38:56.006Z,7.44
2023-04-12T07:41:23.390Z,7.51
2023-04-12T07:43:50.702Z,7.50
2023-04-12T07:46:17.571Z,7.64
2023-04-12T07:48:44.518Z,7.41
2023-04-12T07:51:11.423Z,7.52
2023-04-12T07:53:38.932Z,7.46
2023-04-12T07:56:07.179Z,7.44
2023-04-12T07:58:34.844Z,7.53
2023-04-12T08:01:01.629Z,7.62
2023-04-12T08:03:28.740Z,7.68
2023-04-12T08:05:55.786Z,7.60
2023-04-12T08:08:23.184Z,7.66
2023-04-12T08:10:50.917Z,7.52
2023-04-12T08:13:17.943Z,7.65
2023-04-12T08:15:45.274Z,7.69
2023-04-12T08:18:12.777Z,7.66
2023-04-12T08:20:44.368Z,7.61
2023-04-12T08:23:12.333Z,7.75
2023-04-12T08:25:42.263Z,7.78
2023-04-12T08:28:08.994Z,7.78
2023-04-12T08:30:37.019Z,7.75
2023-04-12T08:33:04.018Z,7.84
2023-04-12T08:35:30.988Z,8.00
2023-04-12T08:37:57.941Z,7.99
2023-04-12T08:40:25.026Z,8.05
2023-04-12T08:42:53.125Z,8.19
2023-04-12T08:45:21.768Z,8.51
2023-04-12T08:47:48.560Z,8.34
2023-04-12T08:50:15.667Z,8.49
2023-04-12T08:52:43.272Z,8.31
2023-04-12T08:55:13.040Z,8.42
2023-04-12T08:57:41.833Z,8.46
2023-04-12T09:00:10.172Z,8.49
2023-04-12T09:02:38.673Z,8.28
2023-04-12T09:05:07.109Z,8.46
2023-04-12T09:07:34.639Z,8.49
2023-04-12T09:10:01.747Z,8.47
2023-04-12T09:12:28.845Z,8.61
2023-04-12T09:15:17.828Z,8.39
2023-04-12T09:17:44.931Z,8.44
2023-04-12T09:20:17.915Z,8.47
2023-04-12T09:22:46.860Z,8.63
2023-04-12T09:25:15.138Z,8.60
2023-04-12T09:27:49.492Z,8.70
2023-04-12T09:30:20.034Z,8.81
2023-04-12T09:32:51.300Z,8.86
2023-04-12T09:35:18.927Z,9.00
2023-04-12T09:37:45.910Z,9.39
2023-04-12T09:40:12.931Z,9.33
2023-04-12T09:42:54.890Z,9.59
2023-04-12T09:45:26.584Z,9.56
2023-04-12T09:47:54.778Z,9.81
2023-04-12T09:50:26.851Z,9.82
2023-04-12T09:52:55.080Z,9.66
2023-04-12T09:55:24.083Z,9.76
2023-04-12T09:57:52.604Z,9.73
2023-04-12T10:00:22.714Z,9.79
2023-04-12T10:02:52.514Z,9.70
2023-04-12T10:05:23.397Z,9.84
2023-04-12T10:07:51.150Z,9.63
2023-04-12T10:10:19.402Z,9.71
2023-04-12T10:12:48.355Z,9.77
2023-04-12T10:15:21.220Z,9.71
2023-04-12T10:17:57.941Z,9.51
2023-04-12T10:20:28.500Z,9.64
2023-04-12T10:22:57.240Z,9.79
2023-04-12T10:25:27.125Z,9.75
2023-04-12T10:27:53.948Z,10.05
2023-04-12T10:30:22.702Z,9.95
2023-04-12T10:33:02.962Z,10.17
2023-04-12T10:35:30.976Z,10.32
2023-04-12T10:38:01.823Z,10.40
2023-04-12T10:40:29.969Z,10.45
2023-04-12T10:43:28.755Z,10.57
2023-04-12T10:45:56.146Z,10.56
2023-04-12T10:48:33.251Z,10.28
2023-04-12T10:51:15.195Z,10.47
2023-04-12T10:53:41.946Z,10.68
2023-04-12T10:56:38.642Z,10.62
2023-04-12T10:59:07.043Z,10.87
2023-04-12T11:01:38.438Z,10.71
2023-04-12T11:04:14.358Z,10.59
2023-04-12T11:06:49.915Z,10.70
2023-04-12T11:09:28.849Z,10.74
2023-04-12T11:11:59.093Z,11.04
2023-04-12T11:14:29.960Z,10.81
2023-04-12T11:17:24.167Z,11.13
2023-04-12T11:19:59.577Z,10.95
2023-04-12T11:22:31.767Z,11.24
2023-04-12T11:25:00.709Z,11.08
2023-04-12T11:27:28.618Z,11.27
2023-04-12T11:29:57.668Z,11.44
2023-04-12T11:32:27.690Z,11.41
2023-04-12T11:34:56.723Z,11.06
2023-04-12T11:37:24.188Z,11.12
2023-04-12T11:39:57.257Z,11.05
2023-04-12T11:42:25.913Z,11.12
2023-04-12T11:44:58.813Z,11.43
2023-04-12T11:47:28.074Z,11.49
2023-04-12T11:49:58.583Z,11.48
2023-04-12T11:52:30.586Z,11.47
2023-04-12T11:55:01.811Z,11.88
2023-04-12T11:57:29.342Z,12.19
2023-04-12T11:59:58.062Z,12.13
2023-04-12T12:02:28.788Z,12.38
2023-04-12T12:04:57.804Z,12.72
2023-04-12T12:07:25.144Z,12.46
2023-04-12T12:09:52.413Z,12.56
2023-04-12T12:12:19.275Z,12.72
2023-04-12T12:14:49.222Z,12.17
2023-04-12T12:17:17.551Z,12.23
2023-04-12T12:19:46.020Z,12.32
2023-04-12T12:22:12.952Z,12.30
2023-04-12T12:24:45.821Z,12.11
2023-04-12T12:27:13.159Z,12.28
2023-04-12T12:29:40.298Z,12.14
2023-04-12T12:32:11.846Z,12.03
2023-04-12T12:34:38.697Z,11.72
2023-04-12T12:37:08.723Z,11.86
2023-04-12T12:39:36.607Z,12.00
2023-04-12T12:42:05.911Z,11.94
2023-04-12T12:44:36.338Z,12.17
2023-04-12T12:47:13.907Z,12.54
2023-04-12T12:49:41.769Z,12.69
2023-04-12T12:52:08.561Z,12.87
2023-04-12T12:54:40.224Z,12.37
2023-04-12T12:57:08.150Z,12.78
2023-04-12T12:59:35.029Z,12.92
2023-04-12T13:02:02.090Z,13.18
2023-04-12T13:04:29.062Z,12.70
2023-04-12T13:06:55.996Z,12.70
2023-04-12T13:09:24.296Z,12.69
2023-04-12T13:11:51.331Z,12.64
2023-04-12T13:14:18.074Z,12.78
2023-04-12T13:16:46.367Z,13.50
2023-04-12T13:19:13.451Z,13.24
2023-04-12T13:21:40.206Z,12.89
2023-04-12T13:24:07.288Z,12.25
2023-04-12T13:26:34.249Z,12.92
2023-04-12T13:29:01.574Z,13.12
2023-04-12T13:31:28.421Z,13.20
2023-04-12T13:33:55.212Z,13.34
2023-04-12T13:36:22.036Z,13.01
2023-04-12T13:38:48.930Z,13.23
2023-04-12T13:41:15.673Z,13.37
2023-04-12T13:43:42.534Z,13.62
2023-04-12T13:46:09.345Z,13.54
2023-04-12T13:48:36.128Z,14.30
2023-04-12T13:51:04.085Z,14.57
2023-04-12T13:53:31.290Z,15.54
2023-04-12T13:55:58.061Z,16.03
2023-04-12T13:58:26.089Z,16.28
2023-04-12T14:00:54.550Z,15.32
2023-04-12T14:03:21.328Z,15.36
2023-04-12T14:05:48.514Z,15.88
2023-04-12T14:08:15.235Z,15.28
2023-04-12T14:10:42.081Z,15.79
2023-04-12T14:13:08.929Z,15.53
2023-04-12T14:15:35.622Z,15.30
2023-04-12T14:18:02.523Z,15.01
2023-04-12T14:20:29.317Z,14.17
2023-04-12T14:22:57.183Z,14.41
2023-04-12T14:25:24.001Z,13.97
2023-04-12T14:27:50.915Z,13.88
2023-04-12T14:30:19.076Z,13.89
2023-04-12T14:32:47.668Z,14.03
2023-04-12T14:35:14.548Z,13.71
2023-04-12T14:37:41.509Z,13.96
2023-04-12T14:40:09.000Z,14.11
2023-04-12T14:42:35.846Z,15.85
2023-04-12T14:45:02.925Z,15.36
2023-04-12T14:47:29.882Z,14.82
2023-04-12T14:49:56.646Z,14.96
2023-04-12T14:52:23.471Z,14.36
2023-04-12T14:54:50.303Z,14.22
2023-04-12T14:57:17.775Z,14.12
2023-04-12T14:59:44.646Z,14.70
2023-04-12T15:02:11.551Z,15.20
2023-04-12T15:04:38.491Z,15.44
2023-04-12T15:07:05.407Z,15.76
2023-04-12T15:09:32.391Z,15.07
2023-04-12T15:12:02.037Z,14.93
2023-04-12T15:14:29.078Z,15.26
2023-04-12T15:16:56.201Z,15.14
2023-04-12T15:19:24.154Z,15.03
2023-04-12T15:21:52.508Z,14.75
2023-04-12T15:24:20.071Z,13.55
2023-04-12T15:26:48.793Z,13.65
2023-04-12T15:29:18.969Z,13.59
2023-04-12T15:31:46.187Z,13.44
2023-04-12T15:34:13.696Z,13.17
2023-04-12T15:36:41.421Z,13.15
2023-04-12T15:39:08.159Z,12.72
2023-04-12T15:41:37.617Z,12.55
2023-04-12T15:44:05.979Z,12.33
2023-04-12T15:46:33.488Z,12.08
2023-04-12T15:49:00.642Z,11.76
2023-04-12T15:51:28.417Z,11.62
2023-04-12T15:53:56.569Z,11.34
2023-04-12T15:56:26.810Z,11.18
2023-04-12T15:58:57.243Z,11.15
2023-04-12T16:01:25.138Z,11.11
2023-04-12T16:03:52.521Z,11.09
2023-04-12T16:06:20.777Z,11.09
2023-04-12T16:08:59.434Z,11.10
2023-04-12T16:11:26.695Z,11.13
2023-04-12T16:13:54.494Z,11.36
2023-04-12T16:16:23.330Z,13.27
2023-04-12T16:18:50.248Z,12.15
2023-04-12T16:21:20.295Z,12.57
2023-04-12T16:23:49.007Z,14.40
2023-04-12T16:26:22.076Z,12.60
2023-04-12T16:28:53.648Z,12.35
2023-04-12T16:31:21.348Z,12.24
2023-04-12T16:33:51.996Z,12.51
2023-04-12T16:36:19.618Z,14.89
2023-04-12T16:38:46.822Z,13.96
2023-04-12T16:41:14.046Z,13.96
2023-04-12T16:43:43.302Z,13.13
2023-04-12T16:46:11.570Z,13.14
2023-04-12T16:48:44.295Z,14.95
2023-04-12T16:51:11.775Z,15.67
2023-04-12T16:53:38.968Z,16.11
2023-04-12T16:56:06.262Z,15.51
2023-04-12T16:58:36.358Z,17.59
2023-04-12T17:01:03.336Z,16.52
2023-04-12T17:03:30.484Z,16.81
2023-04-12T17:05:57.374Z,14.55
2023-04-12T17:08:24.232Z,14.72
2023-04-12T17:10:51.444Z,16.08
2023-04-12T17:13:20.387Z,15.92
2023-04-12T17:15:48.584Z,15.33
2023-04-12T17:18:18.801Z,15.09
2023-04-12T17:20:46.226Z,14.55
2023-04-12T17:23:13.746Z,14.44
2023-04-12T17:25:42.136Z,13.61
2023-04-12T17:28:09.664Z,12.72
2023-04-12T17:30:36.609Z,12.41
2023-04-12T17:33:03.956Z,12.21
2023-04-12T17:35:31.593Z,11.92
2023-04-12T17:37:58.716Z,11.63
2023-04-12T17:40:25.745Z,11.48
2023-04-12T17:42:52.731Z,11.28
2023-04-12T17:45:22.023Z,11.18
2023-04-12T17:47:49.076Z,11.08
2023-04-12T17:50:16.278Z,10.96
2023-04-12T17:52:43.133Z,10.90
2023-04-12T17:55:10.641Z,10.82
2023-04-12T17:57:37.739Z,10.75
2023-04-12T18:00:14.870Z,10.67
2023-04-12T18:02:44.160Z,10.60
2023-04-12T18:05:11.514Z,10.55
2023-04-12T18:07:40.231Z,10.52
2023-04-12T18:10:12.862Z,10.50
2023-04-12T18:12:41.146Z,10.47
2023-04-12T18:15:08.803Z,10.30
2023-04-12T18:17:36.220Z,10.33
2023-04-12T18:20:06.262Z,10.26
2023-04-12T18:22:33.342Z,10.20
2023-04-12T18:25:01.142Z,10.12
2023-04-12T18:27:28.293Z,10.18
2023-04-12T18:29:55.245Z,10.13
2023-04-12T18:32:22.215Z,10.10
2023-04-12T18:34:48.989Z,10.11
2023-04-12T18:37:15.927Z,10.09
2023-04-12T18:39:43.169Z,10.08
2023-04-12T18:42:09.892Z,10.03
2023-04-12T18:44:38.005Z,9.97
2023-04-12T18:47:04.913Z,9.98
2023-04-12T18:49:31.817Z,9.94
2023-04-12T18:51:59.193Z,9.87
2023-04-12T18:54:28.005Z,9.89
2023-04-12T18:56:55.207Z,9.84
2023-04-12T18:59:22.622Z,9.77
2023-04-12T19:01:49.607Z,9.75
2023-04-12T19:04:16.939Z,9.75
2023-04-12T19:06:45.027Z,9.66
2023-04-12T19:09:12.011Z,9.62
2023-04-12T19:11:38.915Z,9.63
2023-04-12T19:14:07.129Z,9.60
2023-04-12T19:16:34.241Z,9.56
2023-04-12T19:19:01.101Z,9.52
2023-04-12T19:21:32.178Z,9.53
2023-04-12T19:23:59.485Z,9.46
2023-04-12T19:26:29.026Z,9.43
2023-04-12T19:28:58.655Z,9.42
2023-04-12T19:31:25.946Z,9.34
2023-04-12T19:33:54.946Z,9.35
2023-04-12T19:36:24.814Z,9.27
2023-04-12T19:38:52.999Z,9.21
2023-04-12T19:41:20.908Z,9.20
2023-04-12T19:43:47.986Z,9.23
2023-04-12T19:46:15.111Z,9.18
2023-04-12T19:48:43.065Z,9.23
2023-04-12T19:51:09.938Z,9.26
2023-04-12T19:53:37.023Z,9.16
2023-04-12T19:56:06.890Z,9.19
2023-04-12T19:58:34.859Z,9.18
2023-04-12T20:01:03.151Z,9.18
2023-04-12T20:03:30.403Z,9.21
2023-04-12T20:05:59.331Z,9.19
2023-04-12T20:08:28.588Z,9.15
2023-04-12T20:10:55.943Z,9.12
2023-04-12T20:13:23.026Z,9.14
2023-04-12T20:15:51.218Z,9.17
2023-04-12T20:18:18.347Z,9.23
2023-04-12T20:20:45.480Z,9.19
2023-04-12T20:23:13.856Z,9.13
2023-04-12T20:25:42.024Z,9.17
2023-04-12T20:28:09.332Z,9.22
2023-04-12T20:30:36.958Z,9.19
2023-04-12T20:33:04.571Z,9.16
2023-04-12T20:35:31.665Z,9.21
2023-04-12T20:37:58.470Z,9.16
2023-04-12T20:40:30.186Z,9.20
2023-04-12T20:42:57.477Z,9.26
2023-04-12T20:45:24.617Z,9.23
2023-04-12T20:47:51.658Z,9.27
2023-04-12T20:50:23.183Z,9.25
2023-04-12T20:52:52.409Z,9.10
2023-04-12T20:55:19.704Z,9.03
2023-04-12T20:57:46.718Z,8.75
2023-04-12T21:00:23.908Z,8.30
2023-04-12T21:02:51.235Z,7.95
2023-04-12T21:05:18.159Z,7.91
2023-04-12T21:07:47.044Z,7.89
2023-04-12T21:10:17.319Z,7.81
2023-04-12T21:12:45.195Z,7.84
2023-04-12T21:15:12.477Z,7.81
2023-04-12T21:17:43.649Z,7.85
2023-04-12T21:20:13.965Z,7.72
2023-04-12T21:22:44.567Z,7.68
2023-04-12T21:25:13.997Z,7.60
2023-04-12T21:27:42.388Z,7.67
2023-04-12T21:30:11.360Z,7.59
2023-04-12T21:32:38.606Z,7.63
2023-04-12T21:35:08.976Z,7.54
2023-04-12T21:37:39.293Z,7.46
2023-04-12T21:40:09.611Z,7.40
2023-04-12T21:42:37.608Z,7.30
2023-04-12T21:45:05.519Z,7.29
2023-04-12T21:47:32.524Z,7.22
2023-04-12T21:49:59.558Z,7.21
2023-04-12T21:52:26.963Z,7.22
2023-04-12T21:54:54.940Z,7.24
2023-04-12T21:57:21.982Z,7.18
2023-04-12T21:59:48.832Z,7.11
2023-04-12T22:02:15.921Z,7.05
2023-04-12T22:04:43.656Z,6.93
2023-04-12T22:07:13.226Z,6.77
2023-04-12T22:09:40.486Z,6.80
2023-04-12T22:12:07.488Z,6.80
2023-04-12T22:14:35.423Z,6.72
2023-04-12T22:17:03.093Z,6.80
2023-04-12T22:19:30.137Z,6.68
2023-04-12T22:21:57.154Z,6.71
2023-04-12T22:24:25.351Z,6.72
2023-04-12T22:26:52.245Z,6.76
2023-04-12T22:29:19.005Z,6.78
2023-04-12T22:31:45.868Z,6.83
2023-04-12T22:34:12.737Z,6.87
2023-04-12T22:36:42.358Z,6.92
2023-04-12T22:39:15.665Z,6.95
2023-04-12T22:41:42.651Z,6.98
2023-04-12T22:44:09.600Z,6.89
2023-04-12T22:46:39.461Z,6.83
2023-04-12T22:49:06.269Z,6.71
2023-04-12T22:51:36.818Z,6.84
2023-04-12T22:54:06.434Z,6.81
2023-04-12T22:56:33.189Z,6.72
2023-04-12T22:58:59.974Z,6.68
2023-04-12T23:01:26.741Z,6.83
2023-04-12T23:03:57.136Z,6.72
2023-04-12T23:06:25.217Z,6.65
2023-04-12T23:08:52.359Z,6.74
2023-04-12T23:11:19.322Z,6.66
2023-04-12T23:13:46.091Z,6.79
2023-04-12T23:16:12.873Z,6.77
2023-04-12T23:18:39.639Z,6.67
2023-04-12T23:21:06.730Z,6.60
2023-04-12T23:23:33.638Z,6.74
2023-04-12T23:26:01.177Z,6.72
2023-04-12T23:28:28.699Z,6.64
2023-04-12T23:30:57.962Z,6.72
2023-04-12T23:33:25.531Z,6.62
2023-04-12T23:35:53.279Z,6.62
2023-04-12T23:38:26.231Z,6.70
2023-04-12T23:40:54.436Z,6.73
2023-04-12T23:43:22.941Z,6.62
2023-04-12T23:45:50.120Z,6.59
2023-04-12T23:48:16.895Z,6.53
2023-04-12T23:50:46.574Z,6.52
2023-04-12T23:53:13.450Z,6.52
2023-04-12T23:55:42.410Z,6.38
2023-04-12T23:58:10.310Z,6.49
